Time;durP1;ratioP1;P1;durP2;ratioP2;P2;SDS_P1;SDS_P2;PMS_P1;PMS_P2;Temp;Humidity;BMP_temperature;BMP_pressure;BME280_temperature;BME280_humidity;BME280_pressure;Samples;Min_cycle;Max_cycle;Signal;HPM_P1;HPM_P2
2021/09/20 00:01:40;;;;;;;;;1.00;1.00;;;;;17.45;66.25;101268.09;4942057;28;45554;-79
2021/09/20 00:04:05;;;;;;;;;2.50;1.00;;;;;17.43;67.45;101267.22;4940061;28;51565;-78
2021/09/20 00:06:31;;;;;;;;;2.25;1.00;;;;;17.38;66.60;101265.41;4941790;28;46378;-80
2021/09/20 00:08:56;;;;;;;;;0.00;0.00;;;;;17.35;66.69;101268.94;4941602;28;46307;-80
2021/09/20 00:11:22;;;;;;;;;3.00;0.00;;;;;17.32;66.43;101273.28;4941574;28;45583;-78
2021/09/20 00:13:47;;;;;;;;;1.00;1.00;;;;;17.29;66.34;101279.41;4940417;28;52585;-79
2021/09/20 00:16:12;;;;;;;;;1.00;1.00;;;;;17.28;67.27;101278.53;4941153;28;49261;-79
2021/09/20 00:18:38;;;;;;;;;2.00;0.75;;;;;17.25;66.85;101267.97;4941315;28;59828;-78
2021/09/20 00:21:03;;;;;;;;;2.00;0.75;;;;;17.26;66.80;101275.00;4941332;28;53127;-79
2021/09/20 00:23:29;;;;;;;;;0.25;0.25;;;;;17.25;66.65;101278.50;4923841;28;52142;-79
2021/09/20 00:25:56;;;;;;;;;1.00;1.00;;;;;17.24;66.07;101275.84;4940215;28;45449;-79
2021/09/20 00:28:22;;;;;;;;;1.50;0.00;;;;;17.21;66.26;101273.22;4941591;28;45478;-79
2021/09/20 00:30:47;;;;;;;;;0.00;0.00;;;;;17.19;66.26;101272.34;4927070;28;50714;-80
2021/09/20 00:33:13;;;;;;;;;0.50;0.00;;;;;17.16;66.47;101267.06;4922194;28;51884;-79
2021/09/20 00:35:38;;;;;;;;;0.00;0.00;;;;;17.12;65.94;101269.69;4923512;28;45293;-79
2021/09/20 00:38:03;;;;;;;;;0.75;0.50;;;;;17.11;66.00;101274.91;4922002;28;57974;-79
2021/09/20 00:40:29;;;;;;;;;0.00;0.00;;;;;17.08;66.61;101265.28;4921772;28;55733;-79
2021/09/20 00:42:54;;;;;;;;;2.00;0.75;;;;;17.08;66.12;101262.66;4922356;28;45304;-79
2021/09/20 00:45:20;;;;;;;;;1.00;0.00;;;;;17.06;66.56;101261.78;4923409;28;45530;-79
2021/09/20 00:47:45;;;;;;;;;0.75;0.00;;;;;17.03;66.14;101266.97;4904864;28;52214;-78
2021/09/20 00:50:11;;;;;;;;;0.50;0.00;;;;;17.02;66.32;101265.25;4921745;28;53511;-79
2021/09/20 00:52:36;;;;;;;;;1.25;0.00;;;;;16.98;66.93;101266.09;4921914;28;46548;-78
2021/09/20 00:55:02;;;;;;;;;2.00;0.00;;;;;16.98;66.22;101260.84;4922064;28;45269;-79
2021/09/20 00:57:27;;;;;;;;;1.25;0.00;;;;;16.95;66.48;101264.34;4922789;28;45308;-78
2021/09/20 00:59:53;;;;;;;;;1.50;0.00;;;;;16.92;66.78;101261.66;4904586;28;52440;-79
2021/09/20 01:02:18;;;;;;;;;0.50;0.50;;;;;16.92;66.78;101247.66;4904636;28;45744;-79
2021/09/20 01:04:43;;;;;;;;;1.50;0.25;;;;;16.91;67.37;101249.44;4921048;28;46974;-78
2021/09/20 01:07:09;;;;;;;;;0.00;0.00;;;;;16.93;66.91;101250.28;4922625;28;45982;-78
2021/09/20 01:09:39;;;;;;;;;1.50;0.25;;;;;16.94;67.27;101254.69;4921430;28;54205;-78
2021/09/20 01:12:05;;;;;;;;;1.00;1.00;;;;;16.95;67.23;101245.94;4922133;28;45275;-78
2021/09/20 01:14:30;;;;;;;;;1.00;1.00;;;;;16.96;67.71;101250.31;4905030;28;45301;-78
2021/09/20 01:16:56;;;;;;;;;1.25;1.00;;;;;16.98;67.79;101252.97;4921999;28;62241;-78
2021/09/20 01:19:21;;;;;;;;;1.00;0.75;;;;;16.98;67.63;101249.44;4921192;28;56086;-78
2021/09/20 01:21:46;;;;;;;;;2.00;0.50;;;;;16.98;67.86;101241.56;4931412;28;45472;-78
2021/09/20 01:24:12;;;;;;;;;1.00;1.00;;;;;16.99;68.52;101238.06;4940319;28;45350;-78
2021/09/20 01:26:37;;;;;;;;;2.50;1.50;;;;;17.01;68.46;101246.84;4939066;28;45355;-78
2021/09/20 01:29:06;;;;;;;;;2.25;0.00;;;;;17.00;68.11;101242.47;4940209;28;56938;-78
2021/09/20 01:31:32;;;;;;;;;3.50;1.00;;;;;17.04;68.52;101239.84;4924032;28;45274;-78
2021/09/20 01:33:57;;;;;;;;;1.00;1.00;;;;;17.06;68.87;101247.75;4940452;28;50861;-78
2021/09/20 01:36:22;;;;;;;;;2.25;2.25;;;;;17.04;68.25;101237.22;4940228;28;56621;-78
2021/09/20 01:38:48;;;;;;;;;1.00;0.25;;;;;17.09;68.72;101237.25;4938029;28;56844;-78
2021/09/20 01:41:13;;;;;;;;;0.25;0.25;;;;;17.12;68.29;101242.53;4939809;28;46713;-78
2021/09/20 01:43:39;;;;;;;;;1.00;1.00;;;;;17.10;68.17;101241.63;4940271;28;50899;-78
2021/09/20 01:46:04;;;;;;;;;1.75;1.75;;;;;17.13;67.89;101244.28;4940654;28;46133;-78
2021/09/20 01:48:30;;;;;;;;;3.50;2.00;;;;;17.11;68.44;101239.00;4938115;28;59230;-78
2021/09/20 01:50:55;;;;;;;;;1.00;1.00;;;;;17.12;68.38;101238.16;4939857;28;49592;-78
2021/09/20 01:53:20;;;;;;;;;1.50;1.00;;;;;17.15;68.00;101239.06;4940317;28;47128;-78
2021/09/20 01:55:46;;;;;;;;;2.00;2.00;;;;;17.16;68.17;101238.16;4922293;28;52945;-78
2021/09/20 01:58:11;;;;;;;;;1.75;1.00;;;;;17.15;68.01;101242.53;4938205;28;54981;-78
2021/09/20 02:00:43;;;;;;;;;3.00;1.25;;;;;17.16;68.08;101232.91;4907301;28;45704;-78
2021/09/20 02:03:08;;;;;;;;;1.00;1.00;;;;;17.18;68.41;101229.41;4940531;28;45373;-78
2021/09/20 02:05:33;;;;;;;;;5.00;1.00;;;;;17.18;68.21;101239.94;4940225;28;46099;-77
2021/09/20 02:07:59;;;;;;;;;2.00;2.00;;;;;17.15;68.26;101229.41;4938108;28;53670;-77
2021/09/20 02:10:24;;;;;;;;;1.00;1.00;;;;;17.15;67.79;101229.41;4939574;28;55715;-78
2021/09/20 02:12:50;;;;;;;;;4.00;2.00;;;;;17.16;67.62;101235.53;4935503;28;47244;-78
2021/09/20 02:15:15;;;;;;;;;1.00;1.00;;;;;17.14;67.59;101230.28;4920621;28;46922;-77
2021/09/20 02:17:40;;;;;;;;;3.00;1.00;;;;;17.15;67.74;101228.53;4920901;28;45363;-78
2021/09/20 02:20:07;;;;;;;;;1.75;0.50;;;;;17.14;68.29;101230.28;4921942;28;45355;-78
2021/09/20 02:22:34;;;;;;;;;2.25;1.50;;;;;17.14;67.88;101227.66;4920966;28;45512;-78
2021/09/20 02:25:00;;;;;;;;;1.75;1.00;;;;;17.14;67.99;101230.28;4903740;28;46285;-78
2021/09/20 02:27:26;;;;;;;;;2.50;1.75;;;;;17.15;68.20;101218.91;4920712;28;45362;-78
2021/09/20 02:29:51;;;;;;;;;3.25;2.00;;;;;17.15;68.63;101224.16;4921203;28;50751;-77
2021/09/20 02:32:17;;;;;;;;;1.00;1.00;;;;;17.16;68.40;101218.03;4920390;28;45269;-77
2021/09/20 02:34:43;;;;;;;;;1.25;1.25;;;;;17.16;68.27;101217.16;4920697;28;45996;-77
2021/09/20 02:37:08;;;;;;;;;1.00;1.00;;;;;17.17;68.17;101222.41;4920555;28;45302;-78
2021/09/20 02:39:34;;;;;;;;;2.50;1.00;;;;;17.19;68.31;101223.31;4921559;28;45973;-78
2021/09/20 02:41:59;;;;;;;;;2.00;2.00;;;;;17.16;68.11;101225.94;4920406;28;48691;-77
2021/09/20 02:44:24;;;;;;;;;1.00;1.00;;;;;17.19;68.45;101225.06;4920111;28;51217;-77
2021/09/20 02:46:50;;;;;;;;;4.00;2.25;;;;;17.20;68.34;101227.69;4920409;28;54857;-78
2021/09/20 02:49:16;;;;;;;;;1.00;1.00;;;;;17.22;68.74;101220.69;4921223;28;45405;-77
2021/09/20 02:51:41;;;;;;;;;3.00;1.00;;;;;17.21;67.89;101218.91;4920791;28;45351;-77
2021/09/20 02:54:07;;;;;;;;;2.00;2.00;;;;;17.20;68.52;101222.44;4920191;28;50350;-77
2021/09/20 02:56:32;;;;;;;;;4.25;2.00;;;;;17.20;68.56;101221.53;4920117;28;45635;-77
2021/09/20 02:58:57;;;;;;;;;2.75;1.00;;;;;17.20;68.03;101214.56;4919983;28;48809;-77
2021/09/20 03:01:23;;;;;;;;;1.00;1.00;;;;;17.20;68.04;101221.53;4921156;28;47617;-78
2021/09/20 03:03:48;;;;;;;;;1.00;1.00;;;;;17.18;68.24;101224.16;4919600;28;60634;-77
2021/09/20 03:06:13;;;;;;;;;1.25;1.25;;;;;17.17;68.73;101221.53;4937174;28;51178;-78
2021/09/20 03:08:39;;;;;;;;;2.50;1.00;;;;;17.17;68.57;101217.16;4939069;28;52552;-77
2021/09/20 03:11:04;;;;;;;;;1.00;1.00;;;;;17.18;68.29;101218.03;4937412;28;45376;-78
2021/09/20 03:13:30;;;;;;;;;1.00;1.00;;;;;17.16;68.43;101218.03;4939224;28;46330;-77
2021/09/20 03:15:55;;;;;;;;;1.00;1.00;;;;;17.16;68.14;101218.03;4938773;28;57976;-78
2021/09/20 03:18:20;;;;;;;;;3.75;1.00;;;;;17.16;68.65;101228.56;4938663;28;50326;-77
2021/09/20 03:20:46;;;;;;;;;2.00;2.00;;;;;17.17;68.09;101222.41;4936880;28;47170;-78
2021/09/20 03:23:11;;;;;;;;;2.00;2.00;;;;;17.16;68.49;101231.19;4938920;28;55773;-77
2021/09/20 03:25:36;;;;;;;;;4.25;1.75;;;;;17.15;68.52;101218.91;4938936;28;45359;-78
2021/09/20 03:28:02;;;;;;;;;2.00;2.00;;;;;17.14;68.19;101222.41;4942626;28;45747;-78
2021/09/20 03:30:27;;;;;;;;;1.00;1.00;;;;;17.17;68.41;101235.53;4927720;28;45314;-78
2021/09/20 03:32:53;;;;;;;;;2.00;1.00;;;;;17.14;68.38;101227.66;4923084;28;46096;-77
2021/09/20 03:35:18;;;;;;;;;1.25;1.25;;;;;17.15;68.59;101223.28;4923623;28;45409;-77
2021/09/20 03:37:44;;;;;;;;;2.00;2.00;;;;;17.15;68.66;101226.78;4923252;28;46046;-77
2021/09/20 03:40:11;;;;;;;;;2.75;1.25;;;;;17.15;68.98;101229.41;4923554;28;45170;-78
2021/09/20 03:42:36;;;;;;;;;2.75;2.75;;;;;17.17;68.64;101235.53;4923898;28;46676;-77
2021/09/20 03:45:02;;;;;;;;;1.75;1.75;;;;;17.16;69.35;101231.19;4922823;28;45290;-77
2021/09/20 03:47:27;;;;;;;;;5.25;2.00;;;;;17.16;68.56;101228.56;4923361;28;45445;-77
2021/09/20 03:49:53;;;;;;;;;5.00;1.00;;;;;17.19;68.86;101231.19;4922887;28;47150;-77
2021/09/20 03:52:18;;;;;;;;;1.75;1.75;;;;;17.20;68.44;101232.94;4923938;28;46155;-77
2021/09/20 03:54:43;;;;;;;;;3.25;2.25;;;;;17.17;68.76;101218.91;4922920;28;45329;-77
2021/09/20 03:57:09;;;;;;;;;3.00;2.00;;;;;17.21;68.93;101228.56;4930727;28;45537;-77
2021/09/20 03:59:34;;;;;;;;;2.50;2.00;;;;;17.22;68.86;101231.19;4923395;28;45338;-77
2021/09/20 04:02:00;;;;;;;;;2.50;2.50;;;;;17.23;69.35;101232.97;4906692;28;46036;-77
2021/09/20 04:04:25;;;;;;;;;1.50;1.50;;;;;17.25;69.50;101240.84;4905944;28;45441;-77
2021/09/20 04:06:51;;;;;;;;;2.50;2.00;;;;;17.23;69.50;101222.44;4922470;28;52356;-77
2021/09/20 04:09:17;;;;;;;;;3.00;1.00;;;;;17.26;69.53;101227.72;4923163;28;45294;-77
2021/09/20 04:11:42;;;;;;;;;2.00;2.00;;;;;17.30;69.92;101232.09;4922491;28;46281;-77
2021/09/20 04:14:08;;;;;;;;;6.25;4.75;;;;;17.32;69.26;101233.88;4923246;28;53277;-77
2021/09/20 04:16:34;;;;;;;;;2.25;2.25;;;;;17.34;69.69;101232.09;4922135;28;45437;-77
2021/09/20 04:18:59;;;;;;;;;2.25;2.00;;;;;17.35;69.28;101231.25;4922890;28;45596;-78
2021/09/20 04:21:24;;;;;;;;;3.75;2.25;;;;;17.36;69.29;101238.25;4922123;28;57253;-77
2021/09/20 04:23:50;;;;;;;;;2.00;2.00;;;;;17.38;69.83;101239.13;4923193;28;54219;-78
2021/09/20 04:26:15;;;;;;;;;2.25;2.00;;;;;17.36;69.33;101238.25;4922446;28;45877;-77
2021/09/20 04:28:41;;;;;;;;;2.75;2.75;;;;;17.39;69.18;101236.53;4922785;28;45394;-77
2021/09/20 04:31:06;;;;;;;;;4.00;1.50;;;;;17.38;69.93;101241.75;4921810;28;62001;-78
2021/09/20 04:33:31;;;;;;;;;5.50;3.75;;;;;17.38;69.43;101242.66;4916033;28;55305;-77
2021/09/20 04:35:57;;;;;;;;;3.50;3.00;;;;;17.39;69.35;101238.28;4937747;28;57274;-77
2021/09/20 04:38:22;;;;;;;;;2.00;2.00;;;;;17.39;69.43;101235.63;4938599;28;45357;-77
2021/09/20 04:40:48;;;;;;;;;3.75;2.75;;;;;17.40;68.92;101240.03;4941409;28;46967;-78
2021/09/20 04:43:13;;;;;;;;;2.00;2.00;;;;;17.39;69.26;101235.63;4941385;28;45269;-77
2021/09/20 04:45:39;;;;;;;;;4.00;2.50;;;;;17.38;69.83;101240.03;4941435;28;45316;-77
2021/09/20 04:48:07;;;;;;;;;3.00;3.00;;;;;17.36;68.95;101233.88;4939948;28;45554;-77
2021/09/20 04:50:32;;;;;;;;;3.00;3.00;;;;;17.36;69.14;101238.25;4924008;28;46914;-78
2021/09/20 04:52:58;;;;;;;;;2.50;2.50;;;;;17.37;68.85;101246.16;4941304;28;46802;-77
2021/09/20 04:55:23;;;;;;;;;2.00;2.00;;;;;17.35;68.74;101241.75;4941027;28;46486;-77
2021/09/20 04:57:49;;;;;;;;;4.00;3.00;;;;;17.34;68.74;101242.63;4939268;28;45477;-77
2021/09/20 05:00:14;;;;;;;;;3.00;3.00;;;;;17.30;68.84;101242.63;4940995;28;54567;-77
2021/09/20 05:02:40;;;;;;;;;3.25;2.75;;;;;17.30;69.10;101249.63;4941035;28;45364;-77
2021/09/20 05:05:06;;;;;;;;;2.50;2.00;;;;;17.28;68.64;101247.00;4941388;28;45225;-77
2021/09/20 05:07:33;;;;;;;;;3.00;2.25;;;;;17.27;68.53;101247.88;4917877;28;45744;-77
2021/09/20 05:09:59;;;;;;;;;3.00;3.00;;;;;17.27;69.15;101244.38;4921576;28;47251;-77
2021/09/20 05:12:24;;;;;;;;;3.75;3.00;;;;;17.22;69.13;101236.44;4909162;28;45465;-76
2021/09/20 05:14:49;;;;;;;;;2.50;1.75;;;;;17.25;68.85;101251.34;4941021;28;45558;-77
2021/09/20 05:17:15;;;;;;;;;2.75;2.75;;;;;17.24;68.82;101253.09;4939103;28;47354;-77
2021/09/20 05:19:40;;;;;;;;;2.00;2.00;;;;;17.24;68.63;101255.75;4923178;28;56930;-79
2021/09/20 05:22:06;;;;;;;;;2.25;2.25;;;;;17.24;69.31;101260.09;4940814;28;45404;-79
2021/09/20 05:24:31;;;;;;;;;3.50;3.50;;;;;17.25;69.06;101264.47;4940589;28;55508;-79
2021/09/20 05:26:57;;;;;;;;;2.25;1.00;;;;;17.23;68.59;101267.09;4940665;28;45166;-77
2021/09/20 05:29:22;;;;;;;;;2.75;2.25;;;;;17.23;69.18;101268.88;4938228;28;46109;-77
2021/09/20 05:31:47;;;;;;;;;2.50;2.50;;;;;17.22;68.41;101262.72;4939879;28;47559;-77
2021/09/20 05:34:13;;;;;;;;;3.00;3.00;;;;;17.25;69.26;101267.13;4939804;28;46656;-75
2021/09/20 05:36:38;;;;;;;;;5.00;3.00;;;;;17.25;69.12;101267.97;4940217;28;50446;-76
2021/09/20 05:39:04;;;;;;;;;4.00;3.00;;;;;17.26;69.49;101267.13;4937782;28;49304;-77
2021/09/20 05:41:29;;;;;;;;;2.00;2.00;;;;;17.23;69.34;101261.84;4940421;28;45307;-78
2021/09/20 05:43:54;;;;;;;;;2.50;2.00;;;;;17.26;69.23;101266.25;4940051;28;56200;-72
2021/09/20 05:46:20;;;;;;;;;5.00;3.75;;;;;17.27;68.91;101265.38;4935616;28;50825;-72
2021/09/20 05:48:45;;;;;;;;;4.25;3.50;;;;;17.28;69.17;101277.63;4937083;28;58521;-70
2021/09/20 05:51:11;;;;;;;;;3.25;3.25;;;;;17.29;69.19;101274.13;4940003;28;45408;-72
2021/09/20 05:53:37;;;;;;;;;3.25;3.25;;;;;17.30;69.39;101274.16;4938342;28;45582;-75
2021/09/20 05:56:02;;;;;;;;;6.00;5.25;;;;;17.30;69.06;101271.50;4927336;28;45487;-73
2021/09/20 05:58:28;;;;;;;;;4.75;4.75;;;;;17.32;69.25;101278.53;4932777;28;46718;-74
2021/09/20 06:00:53;;;;;;;;;7.50;5.25;;;;;17.34;69.41;101274.16;4921821;28;47862;-75
2021/09/20 06:03:19;;;;;;;;;7.75;4.50;;;;;17.34;69.33;101267.16;4922337;28;45322;-71
2021/09/20 06:05:44;;;;;;;;;8.50;5.25;;;;;17.37;69.60;101279.44;4938904;28;45336;-72
2021/09/20 06:08:09;;;;;;;;;6.00;6.00;;;;;17.39;69.07;101281.22;4922387;28;45489;-71
2021/09/20 06:10:35;;;;;;;;;6.50;6.50;;;;;17.41;69.63;101274.19;4921584;28;45590;-70
2021/09/20 06:13:03;;;;;;;;;7.75;6.50;;;;;17.44;69.12;101276.84;4924655;28;45380;-68
2021/09/20 06:15:28;;;;;;;;;7.25;6.25;;;;;17.50;69.46;101288.25;4936547;28;45381;-70
2021/09/20 06:17:54;;;;;;;;;6.25;6.00;;;;;17.53;69.90;101283.91;4921536;28;46051;-71
2021/09/20 06:20:19;;;;;;;;;8.00;6.50;;;;;17.56;69.40;101283.91;4924653;28;53254;-71
2021/09/20 06:22:45;;;;;;;;;12.50;8.25;;;;;17.60;69.18;101290.94;4939679;28;45520;-74
2021/09/20 06:25:10;;;;;;;;;13.50;9.00;;;;;17.64;69.28;101292.69;4930139;28;45518;-71
2021/09/20 06:27:36;;;;;;;;;10.50;9.25;;;;;17.66;69.19;101286.56;4920415;28;47173;-76
2021/09/20 06:30:03;;;;;;;;;12.75;10.00;;;;;17.72;69.18;101295.38;4920712;28;45325;-72
2021/09/20 06:32:29;;;;;;;;;10.00;8.50;;;;;17.75;69.30;101297.09;4920328;28;45505;-74
2021/09/20 06:34:54;;;;;;;;;11.25;11.25;;;;;17.76;69.67;101296.25;4935749;28;47627;-74
2021/09/20 06:37:19;;;;;;;;;14.50;10.00;;;;;17.85;69.37;101295.41;4938568;28;45416;-73
2021/09/20 06:39:45;;;;;;;;;14.25;11.25;;;;;17.88;69.38;101295.41;4938734;28;45428;-73
2021/09/20 06:42:11;;;;;;;;;13.25;10.50;;;;;17.91;69.32;101300.66;4938940;28;45443;-73
2021/09/20 06:44:36;;;;;;;;;14.50;10.75;;;;;17.95;68.98;101303.34;4938912;28;45387;-73
2021/09/20 06:47:02;;;;;;;;;14.25;12.00;;;;;18.00;69.73;101305.09;4938444;28;56104;-73
2021/09/20 06:49:27;;;;;;;;;14.50;10.00;;;;;18.05;68.98;101308.63;4921158;28;45418;-73
2021/09/20 06:51:52;;;;;;;;;12.25;11.25;;;;;18.08;69.20;101309.53;4921607;28;45207;-73
2021/09/20 06:54:18;;;;;;;;;17.25;14.00;;;;;18.13;68.99;101318.31;4920955;28;49410;-73
2021/09/20 06:56:44;;;;;;;;;13.50;12.50;;;;;18.19;69.63;101317.44;4921542;28;45450;-73
2021/09/20 06:59:09;;;;;;;;;13.50;13.50;;;;;18.24;69.24;101320.06;4938711;28;45350;-73
2021/09/20 07:01:35;;;;;;;;;14.00;12.50;;;;;18.26;69.64;101329.72;4920735;28;45404;-73
2021/09/20 07:04:00;;;;;;;;;13.50;11.50;;;;;18.31;69.35;101330.63;4938733;28;45362;-73
2021/09/20 07:06:26;;;;;;;;;14.25;12.50;;;;;18.36;69.46;101327.13;4938165;28;59015;-73
2021/09/20 07:08:51;;;;;;;;;17.75;12.00;;;;;18.41;68.86;101325.34;4938356;28;45454;-73
2021/09/20 07:11:16;;;;;;;;;14.25;12.00;;;;;18.49;68.90;101328.88;4938306;28;50745;-73
2021/09/20 07:13:42;;;;;;;;;14.50;11.50;;;;;18.55;69.22;101336.78;4938472;28;46144;-73
2021/09/20 07:16:07;;;;;;;;;14.50;11.25;;;;;18.61;68.70;101331.50;4938042;28;60644;-73
2021/09/20 07:18:32;;;;;;;;;17.50;14.25;;;;;18.64;68.47;101331.53;4937064;28;53340;-73
2021/09/20 07:20:58;;;;;;;;;16.75;13.25;;;;;18.69;68.67;101328.03;4937534;28;45759;-73
2021/09/20 07:23:23;;;;;;;;;16.00;11.25;;;;;18.71;67.92;101336.78;4938238;28;50969;-73
2021/09/20 07:25:49;;;;;;;;;14.00;11.00;;;;;18.73;68.16;101342.94;4921233;28;45439;-73
2021/09/20 07:28:14;;;;;;;;;12.50;10.50;;;;;18.71;67.64;101340.31;4937722;28;62708;-73
2021/09/20 07:30:41;;;;;;;;;14.50;11.50;;;;;18.69;67.61;101343.81;4937352;28;45705;-73
2021/09/20 07:33:07;;;;;;;;;11.25;11.25;;;;;18.69;68.04;101343.81;4921384;28;45581;-73
2021/09/20 07:35:32;;;;;;;;;16.25;12.50;;;;;18.72;68.26;101346.44;4920916;28;51645;-73
2021/09/20 07:37:58;;;;;;;;;18.25;15.00;;;;;18.73;67.56;101345.59;4938184;28;47655;-73
2021/09/20 07:40:25;;;;;;;;;14.75;12.25;;;;;18.75;67.89;101349.09;4920781;28;52471;-73
2021/09/20 07:42:52;;;;;;;;;14.25;12.50;;;;;18.78;68.05;101349.97;4921506;28;45434;-73
2021/09/20 07:45:17;;;;;;;;;15.25;13.50;;;;;18.78;67.71;101355.25;4920944;28;45519;-73
2021/09/20 07:47:43;;;;;;;;;14.25;13.50;;;;;18.78;67.71;101356.97;4938175;28;45458;-73
2021/09/20 07:50:08;;;;;;;;;16.75;13.00;;;;;18.79;67.54;101350.84;4937967;28;55072;-73
2021/09/20 07:52:34;;;;;;;;;18.00;14.75;;;;;18.72;67.83;101338.56;4938168;28;45380;-73
2021/09/20 07:54:59;;;;;;;;;18.50;14.75;;;;;18.95;67.65;101357.88;4938065;28;45548;-73
2021/09/20 07:57:25;;;;;;;;;14.75;13.75;;;;;19.10;67.51;101358.78;4920452;28;52708;-73
2021/09/20 07:59:50;;;;;;;;;14.00;13.50;;;;;19.25;67.43;101355.25;4937982;28;45348;-73
2021/09/20 08:02:16;;;;;;;;;14.00;10.50;;;;;19.35;66.67;101359.59;4937906;28;51170;-73
2021/09/20 08:04:41;;;;;;;;;20.25;13.50;;;;;19.36;66.02;101365.75;4937339;28;62526;-73
2021/09/20 08:07:07;;;;;;;;;16.50;13.75;;;;;19.36;66.06;101361.38;4937103;28;58178;-73
2021/09/20 08:09:32;;;;;;;;;17.75;14.75;;;;;19.35;66.10;101364.00;4937719;28;45243;-73
2021/09/20 08:11:57;;;;;;;;;17.75;14.00;;;;;19.36;66.37;101366.63;4938339;28;45319;-73
2021/09/20 08:14:23;;;;;;;;;12.75;11.75;;;;;19.43;66.00;101365.72;4940434;28;60999;-73
2021/09/20 08:16:48;;;;;;;;;17.75;11.00;;;;;19.49;65.82;101362.19;4941063;28;45397;-73
2021/09/20 08:19:14;;;;;;;;;15.25;12.00;;;;;19.57;66.06;101373.59;4940747;28;53525;-73
2021/09/20 08:21:39;;;;;;;;;16.00;11.75;;;;;19.63;65.55;101375.34;4941088;28;45412;-73
2021/09/20 08:24:05;;;;;;;;;14.50;11.75;;;;;19.78;65.26;101374.41;4941051;28;46522;-73
2021/09/20 08:26:30;;;;;;;;;12.75;12.00;;;;;19.88;65.16;101372.66;4923216;28;59157;-73
2021/09/20 08:28:56;;;;;;;;;12.25;11.50;;;;;20.10;65.09;101376.94;4923364;28;49050;-73
2021/09/20 08:31:21;;;;;;;;;12.50;10.50;;;;;20.28;63.99;101380.38;4941212;28;45424;-73
2021/09/20 08:33:47;;;;;;;;;16.75;12.75;;;;;20.50;64.15;101378.47;4940288;28;63133;-73
2021/09/20 08:36:13;;;;;;;;;10.25;9.25;;;;;20.64;63.34;101376.59;4923340;28;57618;-73
2021/09/20 08:38:38;;;;;;;;;15.00;12.00;;;;;20.73;62.93;101385.38;4939024;28;45317;-74
2021/09/20 08:41:04;;;;;;;;;16.00;12.75;;;;;20.80;63.00;101387.09;4923707;28;45455;-73
2021/09/20 08:43:29;;;;;;;;;10.50;10.50;;;;;20.95;63.36;101386.09;4923467;28;46056;-74
2021/09/20 08:45:55;;;;;;;;;9.00;9.00;;;;;21.01;62.42;101389.56;4940103;28;60168;-74
2021/09/20 08:48:21;;;;;;;;;14.75;9.75;;;;;21.05;62.04;101386.88;4907799;28;45458;-74
2021/09/20 08:50:46;;;;;;;;;13.00;10.25;;;;;21.11;61.89;101382.41;4923544;28;45269;-74
2021/09/20 08:53:12;;;;;;;;;14.25;10.75;;;;;21.25;61.57;101395.50;4940232;28;54627;-73
2021/09/20 08:55:37;;;;;;;;;16.00;11.25;;;;;21.25;61.79;101399.94;4923271;28;45281;-74
2021/09/20 08:58:03;;;;;;;;;20.00;10.75;;;;;21.34;61.54;101390.13;4940388;28;45293;-74
2021/09/20 09:00:28;;;;;;;;;12.50;12.50;;;;;21.45;61.79;101392.66;4940649;28;45319;-74
2021/09/20 09:02:54;;;;;;;;;15.50;12.75;;;;;21.50;61.59;101400.53;4940248;28;46226;-74
2021/09/20 09:05:27;;;;;;;;;13.00;10.25;;;;;21.40;60.52;101394.47;4940457;28;45385;-74
2021/09/20 09:07:59;;;;;;;;;12.50;11.00;;;;;21.37;60.89;101389.22;4940640;28;45326;-74
2021/09/20 09:10:27;;;;;;;;;14.50;11.75;;;;;21.31;60.92;101406.03;4940625;28;45787;-74
2021/09/20 09:12:53;;;;;;;;;9.50;9.25;;;;;21.30;60.75;101409.56;4923480;28;45495;-73
2021/09/20 09:15:20;;;;;;;;;14.75;13.00;;;;;21.34;61.05;101411.28;4922911;28;45358;-74
2021/09/20 09:17:46;;;;;;;;;12.00;11.00;;;;;21.45;60.97;101415.59;4923348;28;45559;-74
2021/09/20 09:20:16;;;;;;;;;14.00;11.00;;;;;21.51;60.28;101408.50;4923248;28;45489;-73
2021/09/20 09:22:47;;;;;;;;;16.50;13.50;;;;;21.50;61.07;101413.75;4940018;28;46101;-73
2021/09/20 09:25:23;;;;;;;;;13.50;12.50;;;;;21.52;61.29;101412.00;4922468;28;45483;-73
2021/09/20 09:27:51;;;;;;;;;12.00;10.75;;;;;21.43;60.45;101423.56;4922727;28;45475;-74
2021/09/20 09:30:23;;;;;;;;;15.75;11.75;;;;;21.37;60.63;101414.81;4907214;28;45316;-73
2021/09/20 09:33:02;;;;;;;;;11.00;10.00;;;;;21.34;60.81;101419.22;4939890;28;46656;-74
2021/09/20 09:35:29;;;;;;;;;16.75;12.75;;;;;21.37;61.25;101425.38;4939850;28;45413;-74
2021/09/20 09:37:55;;;;;;;;;16.75;13.25;;;;;21.32;61.27;101418.38;4922833;28;45331;-74
2021/09/20 09:40:22;;;;;;;;;14.50;13.25;;;;;21.28;60.73;101427.22;4923073;28;45386;-74
2021/09/20 09:42:49;;;;;;;;;13.50;12.75;;;;;21.23;60.99;101422.88;4922678;28;46042;-73
2021/09/20 09:45:25;;;;;;;;;11.25;10.25;;;;;21.20;60.84;101429.06;4939852;28;45482;-74
2021/09/20 09:48:06;;;;;;;;;12.50;11.75;;;;;21.18;61.48;101430.81;4939669;28;45535;-74
2021/09/20 09:50:31;;;;;;;;;16.50;12.25;;;;;21.19;61.26;101432.59;4939871;28;45382;-74
2021/09/20 09:52:56;;;;;;;;;15.50;13.50;;;;;21.15;60.68;101436.16;4939286;28;54939;-74
2021/09/20 09:55:24;;;;;;;;;14.75;12.00;;;;;21.04;60.34;101435.38;4939917;28;45333;-74
2021/09/20 09:57:49;;;;;;;;;18.00;13.00;;;;;20.93;60.89;101433.66;4939460;28;45518;-74
2021/09/20 10:00:17;;;;;;;;;15.75;12.00;;;;;20.86;61.08;101433.75;4939810;28;45427;-74
2021/09/20 10:02:44;;;;;;;;;13.75;13.25;;;;;20.81;61.42;101434.66;4939629;28;46678;-74
2021/09/20 10:05:11;;;;;;;;;14.00;13.00;;;;;20.78;61.25;101433.78;4922141;28;45580;-73
2021/09/20 10:07:39;;;;;;;;;17.50;13.50;;;;;20.77;61.52;101440.84;4939724;28;45439;-73
2021/09/20 10:10:16;;;;;;;;;24.75;15.50;;;;;20.78;62.02;101439.94;4939158;28;45437;-74
2021/09/20 10:12:42;;;;;;;;;14.25;12.00;;;;;20.88;61.65;101435.47;4939381;28;46217;-74
2021/09/20 10:15:09;;;;;;;;;18.25;13.00;;;;;20.95;61.33;101439.84;4939126;28;45408;-73
2021/09/20 10:17:35;;;;;;;;;13.25;13.25;;;;;20.88;61.47;101435.47;4939380;28;45424;-73
2021/09/20 10:20:01;;;;;;;;;17.00;12.50;;;;;20.85;61.67;101446.06;4906393;28;45334;-74
2021/09/20 10:22:27;;;;;;;;;14.00;14.00;;;;;20.78;61.92;101441.72;4922280;28;47283;-73
2021/09/20 10:24:56;;;;;;;;;13.50;12.25;;;;;20.72;61.95;101444.38;4921882;28;45460;-74
2021/09/20 10:27:22;;;;;;;;;14.00;12.75;;;;;20.65;62.02;101440.91;4921994;28;45452;-73
2021/09/20 10:30:08;;;;;;;;;20.50;13.50;;;;;20.62;61.59;101435.59;4939330;28;45436;-73
2021/09/20 10:32:33;;;;;;;;;13.00;13.00;;;;;20.59;61.74;101436.50;4939006;28;47450;-73
2021/09/20 10:35:35;;;;;;;;;13.00;12.25;;;;;20.59;62.42;101435.63;4938788;28;45269;-73
2021/09/20 10:38:13;;;;;;;;;10.25;9.00;;;;;20.63;62.42;101443.53;4912368;28;46294;-73
2021/09/20 10:40:39;;;;;;;;;16.50;11.50;;;;;20.63;62.80;101438.25;4939334;28;45503;-74
2021/09/20 10:43:05;;;;;;;;;13.50;11.50;;;;;20.62;62.82;101439.16;4921906;28;45972;-73
2021/09/20 10:45:33;;;;;;;;;14.50;11.50;;;;;20.63;62.82;101434.72;4938744;28;45643;-73
2021/09/20 10:48:15;;;;;;;;;12.75;11.25;;;;;20.57;62.16;101437.44;4939042;28;45418;-73
2021/09/20 10:50:45;;;;;;;;;15.25;11.75;;;;;20.51;62.45;101439.22;4939060;28;45326;-73
2021/09/20 10:53:28;;;;;;;;;15.75;13.50;;;;;20.50;62.94;101441.88;4938792;28;45463;-73
2021/09/20 10:56:08;;;;;;;;;15.75;12.50;;;;;20.52;62.77;101445.34;4938724;28;45400;-73
2021/09/20 10:58:34;;;;;;;;;14.50;12.75;;;;;20.57;62.79;101442.72;4921349;28;45450;-73
2021/09/20 11:01:11;;;;;;;;;17.75;13.50;;;;;20.58;62.63;101440.06;4937903;28;45337;-72
2021/09/20 11:03:49;;;;;;;;;15.00;13.00;;;;;20.58;62.57;101449.72;4938469;28;46182;-73
2021/09/20 11:06:19;;;;;;;;;12.25;10.75;;;;;20.60;62.75;101445.31;4938830;28;45475;-74
2021/09/20 11:08:44;;;;;;;;;14.75;12.25;;;;;20.65;62.94;101441.75;4938706;28;45507;-73
2021/09/20 11:11:47;;;;;;;;;15.25;12.50;;;;;20.77;63.12;101439.94;4921391;28;45831;-75
2021/09/20 11:14:20;;;;;;;;;14.75;13.75;;;;;20.86;62.74;101441.69;4938650;28;45239;-74
2021/09/20 11:16:58;;;;;;;;;14.25;10.50;;;;;20.91;62.33;101434.56;4938281;28;45471;-76